Time;durP1;ratioP1;P1;durP2;ratioP2;P2;SDS_P1;SDS_P2;PMS_P1;PMS_P2;Temp;Humidity;BMP_temperature;BMP_pressure;BME280_temperature;BME280_humidity;BME280_pressure;Samples;Min_cycle;Max_cycle;Signal;HPM_P1;HPM_P2
2022/07/02 00:01:04;;;;;;;1.17;0.90;;;13.90;99.90;;;;;;5068455;28;20720;-84
2022/07/02 00:03:33;;;;;;;1.40;1.30;;;13.90;99.90;;;;;;5065069;28;20621;-83
2022/07/02 00:06:02;;;;;;;1.00;1.00;;;13.80;99.90;;;;;;5069203;28;20617;-83
2022/07/02 00:08:31;;;;;;;1.47;1.37;;;13.60;99.90;;;;;;5067146;28;20663;-85
2022/07/02 00:11:03;;;;;;;1.90;1.80;;;13.60;99.90;;;;;;5056862;28;20630;-84
2022/07/02 00:13:31;;;;;;;1.17;1.17;;;13.60;99.90;;;;;;5060723;28;20629;-83
2022/07/02 00:15:59;;;;;;;1.07;1.07;;;13.50;99.90;;;;;;5062754;28;20628;-84
2022/07/02 00:18:27;;;;;;;4.70;2.23;;;13.50;99.90;;;;;;5067450;28;20649;-83
2022/07/02 00:20:55;;;;;;;9.60;2.00;;;13.40;99.90;;;;;;5066873;28;20683;-84
2022/07/02 00:23:23;;;;;;;2.53;1.30;;;13.30;99.90;;;;;;5065563;28;20625;-84
2022/07/02 00:25:54;;;;;;;1.40;1.20;;;13.30;99.90;;;;;;5067875;28;20717;-84
2022/07/02 00:28:25;;;;;;;1.00;1.00;;;13.20;99.90;;;;;;5061163;28;20634;-84
2022/07/02 00:30:53;;;;;;;2.10;2.00;;;13.20;99.90;;;;;;5060903;28;20733;-83
2022/07/02 00:33:24;;;;;;;2.63;1.73;;;13.20;99.90;;;;;;5057739;28;20684;-84
2022/07/02 00:35:52;;;;;;;1.60;1.50;;;13.20;99.90;;;;;;5062206;28;20618;-84
2022/07/02 00:38:20;;;;;;;1.30;1.20;;;13.20;99.90;;;;;;5066031;28;20645;-84
2022/07/02 00:40:49;;;;;;;1.07;0.93;;;13.30;99.90;;;;;;5062900;28;20617;-83
2022/07/02 00:43:18;;;;;;;2.13;1.83;;;13.30;99.90;;;;;;5067949;28;20995;-84
2022/07/02 00:45:47;;;;;;;2.30;1.30;;;13.30;99.90;;;;;;5066755;28;20617;-84
2022/07/02 00:48:15;;;;;;;0.93;0.83;;;13.30;99.90;;;;;;5065609;28;21201;-84
2022/07/02 00:50:43;;;;;;;1.37;1.27;;;13.20;99.90;;;;;;5067605;28;20614;-83
2022/07/02 00:53:10;;;;;;;1.50;0.97;;;13.10;99.90;;;;;;5065552;28;20621;-83
2022/07/02 00:55:38;;;;;;;1.80;1.70;;;13.00;99.90;;;;;;5067928;28;21143;-84
2022/07/02 00:58:06;;;;;;;1.00;1.00;;;13.00;99.90;;;;;;5059264;28;20652;-84
2022/07/02 01:00:35;;;;;;;1.10;1.00;;;13.00;99.90;;;;;;5067613;28;20708;-83
2022/07/02 01:03:04;;;;;;;1.80;1.70;;;13.00;99.90;;;;;;5067597;28;20624;-83
2022/07/02 01:05:31;;;;;;;2.33;1.63;;;13.00;99.90;;;;;;5063616;28;20717;-83
2022/07/02 01:10:47;;;;;;;1.47;1.30;;;13.00;99.90;;;;;;5067715;28;20635;-83
2022/07/02 01:13:16;;;;;;;1.83;1.60;;;13.10;99.90;;;;;;5067664;28;20706;-83
2022/07/02 01:15:43;;;;;;;1.53;1.10;;;13.10;99.90;;;;;;5067894;28;20625;-83
2022/07/02 01:18:17;;;;;;;1.70;1.40;;;13.10;99.90;;;;;;5067112;28;20653;-83
2022/07/02 01:20:45;;;;;;;1.70;1.60;;;13.10;99.90;;;;;;5067170;28;20598;-83
2022/07/02 01:23:14;;;;;;;1.67;1.57;;;13.20;99.90;;;;;;5065062;28;20609;-84
2022/07/02 01:25:48;;;;;;;0.80;0.80;;;13.20;99.90;;;;;;5067781;28;20670;-84
2022/07/02 01:28:16;;;;;;;2.40;1.50;;;13.30;99.90;;;;;;5048105;28;20624;-84
2022/07/02 01:30:44;;;;;;;1.70;1.30;;;13.20;99.90;;;;;;5072074;28;21254;-84
2022/07/02 01:33:12;;;;;;;1.53;1.10;;;13.10;99.90;;;;;;5063298;28;20628;-84
2022/07/02 01:35:40;;;;;;;1.27;1.17;;;13.10;99.90;;;;;;5070435;28;20725;-83
2022/07/02 01:38:08;;;;;;;1.47;1.20;;;13.10;99.90;;;;;;5067211;28;20649;-83
2022/07/02 01:40:38;;;;;;;1.60;1.50;;;13.10;99.90;;;;;;5071439;28;20698;-83
2022/07/02 01:43:06;;;;;;;2.40;1.70;;;13.10;99.90;;;;;;5071114;28;20625;-84
2022/07/02 01:45:33;;;;;;;2.30;1.47;;;13.10;99.90;;;;;;5071169;28;21221;-83
2022/07/02 01:48:01;;;;;;;1.17;1.07;;;13.10;99.90;;;;;;5069992;28;21182;-83
2022/07/02 01:50:29;;;;;;;1.17;0.90;;;13.20;99.90;;;;;;5060633;28;20628;-83
2022/07/02 01:52:56;;;;;;;1.40;1.30;;;13.20;99.90;;;;;;5071397;28;21392;-83
2022/07/02 01:55:25;;;;;;;1.20;1.10;;;13.10;99.90;;;;;;5064086;28;20622;-84
2022/07/02 01:57:54;;;;;;;1.93;1.73;;;13.10;99.90;;;;;;5067444;28;20632;-83
2022/07/02 02:00:21;;;;;;;2.30;1.30;;;13.10;99.90;;;;;;5067331;28;21145;-84
2022/07/02 02:02:48;;;;;;;1.30;1.20;;;12.90;99.90;;;;;;5062765;28;20613;-84
2022/07/02 02:05:15;;;;;;;1.10;1.10;;;12.90;99.90;;;;;;5070043;28;20659;-84
2022/07/02 02:07:42;;;;;;;1.47;1.20;;;12.90;99.90;;;;;;5062126;28;21195;-83
2022/07/02 02:10:09;;;;;;;3.07;1.57;;;13.00;99.90;;;;;;5070659;28;20985;-83
2022/07/02 02:12:36;;;;;;;1.60;1.47;;;13.00;99.90;;;;;;5069512;28;21053;-84
2022/07/02 02:15:06;;;;;;;1.47;1.33;;;13.00;99.90;;;;;;5070918;28;20628;-83
2022/07/02 02:17:32;;;;;;;1.30;1.20;;;13.00;99.90;;;;;;5065665;28;21271;-83
2022/07/02 02:19:59;;;;;;;1.67;1.57;;;13.00;99.90;;;;;;5070593;28;21301;-83
2022/07/02 02:22:29;;;;;;;1.07;0.90;;;13.00;99.90;;;;;;5066000;28;20625;-83
2022/07/02 02:24:56;;;;;;;0.97;0.87;;;13.00;99.90;;;;;;5069681;28;21454;-82
2022/07/02 02:27:23;;;;;;;1.93;1.80;;;13.00;99.90;;;;;;5064455;28;20692;-83
2022/07/02 02:29:51;;;;;;;1.90;1.47;;;13.10;99.90;;;;;;5062631;28;20661;-83
2022/07/02 02:32:19;;;;;;;1.67;1.50;;;13.20;99.90;;;;;;5064719;28;20761;-84
2022/07/02 02:34:46;;;;;;;1.43;1.27;;;13.20;99.90;;;;;;5070352;28;21175;-83
2022/07/02 02:37:13;;;;;;;1.90;1.80;;;13.20;99.90;;;;;;5068224;28;20679;-83
2022/07/02 02:39:41;;;;;;;1.20;1.13;;;13.30;99.90;;;;;;5064123;28;20660;-83
2022/07/02 02:42:08;;;;;;;1.47;1.37;;;13.30;99.90;;;;;;5064524;28;20731;-83
2022/07/02 02:44:35;;;;;;;1.70;1.60;;;13.30;99.90;;;;;;5069239;28;20709;-83
2022/07/02 02:47:01;;;;;;;1.63;1.50;;;13.30;99.90;;;;;;5067177;28;20657;-83
2022/07/02 02:49:31;;;;;;;3.10;1.97;;;13.30;99.90;;;;;;5067563;28;21144;-83
2022/07/02 02:51:58;;;;;;;1.47;1.37;;;13.30;99.90;;;;;;5067689;28;20621;-83
2022/07/02 02:54:25;;;;;;;2.07;1.87;;;13.30;99.90;;;;;;5061738;28;20633;-84
2022/07/02 02:56:51;;;;;;;1.83;1.73;;;13.30;99.90;;;;;;5062264;28;20616;-83
2022/07/02 02:59:18;;;;;;;1.90;1.70;;;13.20;99.90;;;;;;5070059;28;21179;-83
2022/07/02 03:01:45;;;;;;;1.10;1.00;;;13.30;99.90;;;;;;5069191;28;21209;-83
2022/07/02 03:04:12;;;;;;;2.20;1.83;;;13.30;99.90;;;;;;5070089;28;20631;-83
2022/07/02 03:06:40;;;;;;;2.50;2.00;;;13.30;99.90;;;;;;5061584;28;20650;-84
2022/07/02 03:09:07;;;;;;;2.13;1.73;;;13.30;99.90;;;;;;5070026;28;20756;-83
2022/07/02 03:11:34;;;;;;;1.73;1.63;;;13.30;99.90;;;;;;5070029;28;20648;-83
2022/07/02 03:14:01;;;;;;;2.47;2.33;;;13.30;99.90;;;;;;5068863;28;20637;-83
2022/07/02 03:16:28;;;;;;;1.83;1.60;;;13.40;99.90;;;;;;5070227;28;20647;-84
2022/07/02 03:18:54;;;;;;;1.73;1.53;;;13.40;99.90;;;;;;5063899;28;20680;-83
2022/07/02 03:21:21;;;;;;;2.03;1.80;;;13.30;99.90;;;;;;5070344;28;20721;-83
2022/07/02 03:23:49;;;;;;;1.57;1.47;;;13.30;99.90;;;;;;5070006;28;20724;-83
2022/07/02 03:26:17;;;;;;;3.13;2.20;;;13.30;99.90;;;;;;5075946;28;20660;-83
2022/07/02 03:28:43;;;;;;;1.43;1.10;;;13.20;99.90;;;;;;5072732;28;20706;-83
2022/07/02 03:31:10;;;;;;;1.50;1.40;;;13.20;99.90;;;;;;5069750;28;20621;-83
2022/07/02 03:33:38;;;;;;;2.40;1.90;;;13.10;99.90;;;;;;5057228;28;20634;-83
2022/07/02 03:36:05;;;;;;;2.40;2.20;;;12.90;99.90;;;;;;5068524;28;20629;-83
2022/07/02 03:38:32;;;;;;;2.33;2.13;;;12.90;99.90;;;;;;5069621;28;20649;-83
2022/07/02 03:41:01;;;;;;;1.50;1.40;;;13.00;99.90;;;;;;5064401;28;20627;-83
2022/07/02 03:43:28;;;;;;;1.77;1.67;;;12.90;99.90;;;;;;5051991;28;21302;-83
2022/07/02 03:45:55;;;;;;;1.60;1.50;;;12.90;99.90;;;;;;5068770;28;20694;-83
2022/07/02 03:48:22;;;;;;;1.10;1.03;;;12.90;99.90;;;;;;5069073;28;20718;-83
2022/07/02 03:50:48;;;;;;;1.80;1.20;;;12.90;99.90;;;;;;5069258;28;20624;-83
2022/07/02 03:53:15;;;;;;;1.77;1.67;;;12.90;99.90;;;;;;5068135;28;20751;-83
2022/07/02 03:55:42;;;;;;;2.43;1.37;;;12.90;99.90;;;;;;5061784;28;20724;-83
2022/07/02 03:58:10;;;;;;;1.40;1.30;;;12.90;99.90;;;;;;5064294;28;20719;-83
2022/07/02 04:00:37;;;;;;;1.70;1.40;;;12.90;99.90;;;;;;5067094;28;20652;-83
2022/07/02 04:03:04;;;;;;;1.47;1.27;;;13.00;99.90;;;;;;5057631;28;20701;-83
2022/07/02 04:05:31;;;;;;;1.70;1.60;;;13.00;99.90;;;;;;5068800;28;20671;-83
2022/07/02 04:07:58;;;;;;;4.10;1.77;;;13.10;99.90;;;;;;5068920;28;20682;-83
2022/07/02 04:10:25;;;;;;;1.27;1.17;;;13.10;99.90;;;;;;5068999;28;20649;-83
2022/07/02 04:12:52;;;;;;;2.43;2.10;;;13.00;99.90;;;;;;5064933;28;20720;-83
2022/07/02 04:15:21;;;;;;;4.30;1.60;;;13.00;99.90;;;;;;5066294;28;20904;-83
2022/07/02 04:17:48;;;;;;;1.90;1.80;;;13.00;99.90;;;;;;5060034;28;20629;-83
2022/07/02 04:20:14;;;;;;;2.30;2.07;;;13.10;99.90;;;;;;5068922;28;20648;-84
2022/07/02 04:22:41;;;;;;;2.47;1.90;;;13.30;99.90;;;;;;5066864;28;20649;-84
2022/07/02 04:25:09;;;;;;;1.87;1.77;;;13.40;99.90;;;;;;5063528;28;20617;-84
2022/07/02 04:27:36;;;;;;;1.63;1.43;;;13.50;99.90;;;;;;5067837;28;20724;-84
2022/07/02 04:30:04;;;;;;;2.53;2.23;;;13.70;99.90;;;;;;5062952;28;21367;-83
2022/07/02 04:32:32;;;;;;;2.00;1.67;;;13.70;99.90;;;;;;5064786;28;20750;-83
2022/07/02 04:34:59;;;;;;;2.20;2.00;;;13.80;99.90;;;;;;5068662;28;20617;-83
2022/07/02 04:37:26;;;;;;;2.80;2.10;;;13.90;99.90;;;;;;5062297;28;20630;-85
2022/07/02 04:39:52;;;;;;;2.40;1.77;;;14.00;99.90;;;;;;5068353;28;20632;-84
2022/07/02 04:42:19;;;;;;;2.20;2.00;;;14.10;99.90;;;;;;5062580;28;20638;-84
2022/07/02 04:44:46;;;;;;;3.07;1.70;;;14.10;99.90;;;;;;5068367;28;20625;-83
2022/07/02 04:47:13;;;;;;;2.20;2.00;;;14.20;99.90;;;;;;5060296;28;20647;-84
2022/07/02 04:49:41;;;;;;;3.37;2.23;;;14.20;99.90;;;;;;5068221;28;20641;-85
2022/07/02 04:52:08;;;;;;;2.50;2.07;;;14.20;99.90;;;;;;5067923;28;20621;-83
2022/07/02 04:54:35;;;;;;;2.63;1.63;;;14.40;99.90;;;;;;5066966;28;20665;-84
2022/07/02 04:57:02;;;;;;;1.50;1.40;;;14.40;99.90;;;;;;5062035;28;20712;-84
2022/07/02 04:59:29;;;;;;;1.70;1.60;;;14.50;99.90;;;;;;5064567;28;20630;-85
2022/07/02 05:01:56;;;;;;;1.93;1.73;;;14.60;99.90;;;;;;5065435;28;20633;-85
2022/07/02 05:04:23;;;;;;;2.30;2.10;;;14.60;99.90;;;;;;5064364;28;20718;-84
2022/07/02 05:06:51;;;;;;;2.37;1.90;;;14.60;99.90;;;;;;5067705;28;21222;-85
2022/07/02 05:09:18;;;;;;;1.60;1.50;;;14.70;99.90;;;;;;5061776;28;20645;-84
2022/07/02 05:11:45;;;;;;;1.73;1.63;;;14.70;99.90;;;;;;5068738;28;20602;-83
2022/07/02 05:14:12;;;;;;;2.43;2.00;;;14.80;99.90;;;;;;5067983;28;20736;-84
2022/07/02 05:16:39;;;;;;;2.57;2.07;;;14.80;99.90;;;;;;5068257;28;20794;-83
2022/07/02 05:19:06;;;;;;;2.20;2.00;;;14.90;99.90;;;;;;5065840;28;20653;-84
2022/07/02 05:21:33;;;;;;;1.77;1.67;;;15.00;99.90;;;;;;5061959;28;20720;-84
2022/07/02 05:24:01;;;;;;;1.97;1.87;;;15.00;99.90;;;;;;5067054;28;20687;-84
2022/07/02 05:26:29;;;;;;;2.03;1.77;;;15.00;99.90;;;;;;5067389;28;20629;-84
2022/07/02 05:28:56;;;;;;;1.70;1.60;;;15.10;99.90;;;;;;5067115;28;21095;-84
2022/07/02 05:31:22;;;;;;;5.37;2.43;;;15.10;99.90;;;;;;5068337;28;20649;-84
2022/07/02 05:33:49;;;;;;;2.70;2.50;;;15.20;99.90;;;;;;5063518;28;20627;-84
2022/07/02 05:36:16;;;;;;;1.53;1.43;;;15.20;99.90;;;;;;5065722;28;20686;-84
2022/07/02 05:38:43;;;;;;;1.33;1.23;;;15.30;99.90;;;;;;5068340;28;20628;-84
2022/07/02 05:41:13;;;;;;;2.10;1.60;;;15.40;99.90;;;;;;5067929;28;20613;-84
2022/07/02 05:43:50;;;;;;;1.60;1.10;;;15.50;99.90;;;;;;5066494;28;20664;-84
2022/07/02 05:46:17;;;;;;;1.80;1.13;;;15.50;99.90;;;;;;5064888;28;20633;-84
2022/07/02 05:48:44;;;;;;;1.83;1.67;;;15.60;99.90;;;;;;5067578;28;20628;-84
2022/07/02 05:51:10;;;;;;;1.13;1.13;;;15.60;99.90;;;;;;5063850;28;20742;-84
2022/07/02 05:53:37;;;;;;;1.27;1.17;;;15.60;99.90;;;;;;5066907;28;20659;-84
2022/07/02 05:56:04;;;;;;;1.83;1.63;;;15.70;99.90;;;;;;5060071;28;20621;-84
2022/07/02 05:58:33;;;;;;;1.20;1.10;;;15.70;99.90;;;;;;5067095;28;20720;-85
2022/07/02 06:01:00;;;;;;;1.93;1.30;;;15.80;99.90;;;;;;5065166;28;20652;-84
2022/07/02 06:03:27;;;;;;;0.93;0.80;;;16.00;99.90;;;;;;5066413;28;20675;-84
2022/07/02 06:08:46;;;;;;;1.40;1.30;;;16.10;99.90;;;;;;5028516;28;20636;-84
2022/07/02 06:11:13;;;;;;;1.50;1.40;;;16.30;99.90;;;;;;5065204;28;20661;-84
2022/07/02 06:13:42;;;;;;;1.27;0.90;;;16.40;99.90;;;;;;5066291;28;20621;-84
2022/07/02 06:16:09;;;;;;;2.00;1.90;;;16.50;99.90;;;;;;5067822;28;20624;-84
2022/07/02 06:18:36;;;;;;;2.10;1.63;;;16.50;99.90;;;;;;5067197;28;20626;-84
2022/07/02 06:21:03;;;;;;;1.00;1.00;;;16.50;99.90;;;;;;5068841;28;20644;-84
2022/07/02 06:23:30;;;;;;;0.90;0.90;;;16.50;99.90;;;;;;5068764;28;20625;-84
2022/07/02 06:25:57;;;;;;;1.37;1.27;;;16.70;99.90;;;;;;5070543;28;20686;-84
2022/07/02 06:28:24;;;;;;;1.17;0.90;;;16.70;99.90;;;;;;5062021;28;20633;-84
2022/07/02 06:30:52;;;;;;;1.43;1.30;;;16.70;99.90;;;;;;5071120;28;20661;-83
2022/07/02 06:33:19;;;;;;;0.80;0.80;;;16.80;99.90;;;;;;5069128;28;20694;-84
2022/07/02 06:35:46;;;;;;;0.60;0.60;;;16.90;99.90;;;;;;5070580;28;20627;-83
2022/07/02 06:38:13;;;;;;;0.87;0.87;;;16.80;99.90;;;;;;5065025;28;20632;-84
2022/07/02 06:40:40;;;;;;;0.60;0.60;;;16.90;99.90;;;;;;5069294;28;20990;-83
2022/07/02 06:43:07;;;;;;;0.90;0.90;;;17.00;99.90;;;;;;5068480;28;20617;-83
2022/07/02 06:45:33;;;;;;;1.93;0.90;;;17.10;99.90;;;;;;5060959;28;20630;-84
2022/07/02 06:48:02;;;;;;;0.70;0.70;;;17.30;99.90;;;;;;5070428;28;20621;-83
2022/07/02 06:50:29;;;;;;;0.70;0.70;;;17.20;99.90;;;;;;5070512;28;20641;-84
2022/07/02 06:52:56;;;;;;;0.70;0.70;;;17.40;99.90;;;;;;5066001;28;20625;-85
2022/07/02 06:55:23;;;;;;;0.87;0.70;;;17.50;99.90;;;;;;5061641;28;20711;-83
2022/07/02 06:57:50;;;;;;;1.43;0.70;;;17.60;99.90;;;;;;5068503;28;20675;-84
2022/07/02 07:00:18;;;;;;;0.73;0.70;;;17.60;99.90;;;;;;5069094;28;20648;-84
2022/07/02 07:02:45;;;;;;;0.60;0.60;;;17.80;99.90;;;;;;5066112;28;20617;-84
2022/07/02 07:05:13;;;;;;;1.10;1.00;;;17.80;99.90;;;;;;5068661;28;20659;-84
2022/07/02 07:07:40;;;;;;;1.60;1.17;;;17.80;99.90;;;;;;5066828;28;20664;-83
2022/07/02 07:10:08;;;;;;;0.77;0.77;;;18.00;99.90;;;;;;5069329;28;20649;-83
2022/07/02 07:12:35;;;;;;;0.60;0.50;;;18.00;99.90;;;;;;5086317;28;20679;-84
2022/07/02 07:15:06;;;;;;;0.90;0.83;;;18.00;99.80;;;;;;5070068;28;20660;-84
2022/07/02 07:17:34;;;;;;;1.53;1.03;;;18.10;98.90;;;;;;5068014;28;20629;-83
2022/07/02 07:20:00;;;;;;;0.53;0.50;;;18.20;99.00;;;;;;5069528;28;20617;-83
2022/07/02 07:22:29;;;;;;;0.83;0.67;;;18.30;98.70;;;;;;5059720;28;21005;-84
2022/07/02 07:24:56;;;;;;;0.90;0.90;;;18.30;98.30;;;;;;5069250;28;21351;-84
2022/07/02 07:27:22;;;;;;;0.80;0.80;;;18.50;98.20;;;;;;5069256;28;21191;-85
2022/07/02 07:29:49;;;;;;;0.70;0.70;;;18.50;98.20;;;;;;5062665;28;20660;-85
2022/07/02 07:32:16;;;;;;;1.07;1.00;;;18.60;98.30;;;;;;5064779;28;20657;-85
2022/07/02 07:34:43;;;;;;;1.10;0.77;;;18.80;98.30;;;;;;5056752;28;20660;-84
2022/07/02 07:37:11;;;;;;;1.23;1.13;;;18.90;97.10;;;;;;5064836;28;20613;-84
2022/07/02 07:39:39;;;;;;;1.37;0.73;;;18.90;97.50;;;;;;5069043;28;20633;-86
2022/07/02 07:42:06;;;;;;;0.77;0.60;;;18.90;97.00;;;;;;5065876;28;20674;-86
2022/07/02 07:44:34;;;;;;;0.80;0.80;;;19.00;96.50;;;;;;5069108;28;20629;-85
2022/07/02 07:47:01;;;;;;;0.87;0.80;;;19.10;96.10;;;;;;5063898;28;20625;-86
2022/07/02 07:49:27;;;;;;;0.60;0.50;;;19.20;96.00;;;;;;5068219;28;20626;-85
2022/07/02 07:51:54;;;;;;;0.73;0.73;;;19.10;96.10;;;;;;5068317;28;20710;-85
2022/07/02 07:54:21;;;;;;;0.63;0.63;;;19.20;96.20;;;;;;5068774;28;20633;-86
2022/07/02 07:56:49;;;;;;;0.60;0.60;;;19.30;96.20;;;;;;5068342;28;20633;-85
2022/07/02 07:59:16;;;;;;;0.67;0.67;;;19.40;95.50;;;;;;5069116;28;20723;-85
2022/07/02 08:01:43;;;;;;;0.87;0.87;;;19.50;95.10;;;;;;5068743;28;20731;-85
2022/07/02 08:04:10;;;;;;;0.80;0.80;;;19.60;95.50;;;;;;5064230;28;20613;-85
2022/07/02 08:06:37;;;;;;;0.47;0.40;;;19.60;94.70;;;;;;5063839;28;21370;-86
2022/07/02 08:09:04;;;;;;;0.50;0.50;;;19.70;94.20;;;;;;5068145;28;21267;-86
2022/07/02 08:11:31;;;;;;;0.70;0.60;;;19.80;93.20;;;;;;5068503;28;20689;-85
2022/07/02 08:13:59;;;;;;;0.70;0.70;;;19.90;93.20;;;;;;5065233;28;21230;-86
2022/07/02 08:16:26;;;;;;;1.20;1.00;;;20.00;92.60;;;;;;5065818;28;20664;-86
2022/07/02 08:18:53;;;;;;;0.80;0.77;;;20.10;92.20;;;;;;5067516;28;20655;-86
2022/07/02 08:21:20;;;;;;;0.67;0.67;;;20.10;92.70;;;;;;5068346;28;20715;-86
2022/07/02 08:23:53;;;;;;;0.83;0.60;;;20.20;92.40;;;;;;5068203;28;20953;-86
2022/07/02 08:26:19;;;;;;;1.70;0.53;;;20.20;91.90;;;;;;5067441;28;20679;-86
2022/07/02 08:28:46;;;;;;;0.63;0.63;;;20.20;91.10;;;;;;5064167;28;20809;-86
2022/07/02 08:31:14;;;;;;;0.50;0.50;;;20.30;91.50;;;;;;5062567;28;20734;-85
2022/07/02 08:33:41;;;;;;;0.70;0.70;;;20.50;91.20;;;;;;5055822;28;20732;-85
2022/07/02 08:36:09;;;;;;;0.60;0.60;;;20.50;92.00;;;;;;5067596;28;20649;-86
2022/07/02 08:38:36;;;;;;;0.87;0.80;;;20.60;91.40;;;;;;5065225;28;20637;-86
2022/07/02 08:41:04;;;;;;;2.20;2.00;;;20.70;91.30;;;;;;5061729;28;20653;-86
2022/07/02 08:43:32;;;;;;;0.80;0.80;;;20.70;92.10;;;;;;5067646;28;20656;-86
2022/07/02 08:46:02;;;;;;;0.40;0.40;;;20.80;91.20;;;;;;5076686;28;20635;-86
2022/07/02 08:48:34;;;;;;;0.70;0.70;;;20.80;90.70;;;;;;5065020;28;20699;-86
2022/07/02 08:51:01;;;;;;;0.67;0.67;;;20.90;90.20;;;;;;5067495;28;20657;-85
2022/07/02 08:53:28;;;;;;;0.47;0.47;;;21.00;90.40;;;;;;5066866;28;20639;-86
2022/07/02 08:55:56;;;;;;;0.60;0.60;;;21.10;87.10;;;;;;5060431;28;20628;-85
2022/07/02 08:58:24;;;;;;;0.47;0.47;;;21.20;87.50;;;;;;5062347;28;20710;-85
2022/07/02 09:00:51;;;;;;;0.53;0.53;;;21.30;89.70;;;;;;5067652;28;20621;-86
2022/07/02 09:03:20;;;;;;;0.73;0.73;;;21.30;88.10;;;;;;5065514;28;21184;-85
2022/07/02 09:05:51;;;;;;;0.80;0.50;;;21.30;85.00;;;;;;5068182;28;20210;-87
2022/07/02 09:08:18;;;;;;;0.60;0.60;;;21.40;86.70;;;;;;5059708;28;20629;-86
2022/07/02 09:10:46;;;;;;;0.70;0.70;;;21.50;86.50;;;;;;5067530;28;20645;-86
2022/07/02 09:13:15;;;;;;;0.90;0.90;;;21.70;86.50;;;;;;5066282;28;21380;-86
2022/07/02 09:15:43;;;;;;;0.70;0.60;;;21.80;82.50;;;;;;5067411;28;20671;-86
2022/07/02 09:18:11;;;;;;;0.80;0.60;;;21.80;82.40;;;;;;5067731;28;20664;-86
2022/07/02 09:20:38;;;;;;;0.60;0.60;;;21.90;83.00;;;;;;5067613;28;20687;-85
2022/07/02 09:23:19;;;;;;;0.60;0.60;;;22.10;81.50;;;;;;5062812;28;20625;-85
2022/07/02 09:25:47;;;;;;;0.63;0.63;;;22.00;77.20;;;;;;5067774;28;20629;-85
2022/07/02 09:28:15;;;;;;;0.43;0.40;;;22.10;78.90;;;;;;5067555;28;20641;-86
2022/07/02 09:30:42;;;;;;;1.40;0.70;;;22.20;76.70;;;;;;5066030;28;20756;-86
2022/07/02 09:33:30;;;;;;;0.70;0.70;;;22.30;76.30;;;;;;5053853;28;21228;-85
2022/07/02 09:35:58;;;;;;;0.60;0.60;;;22.40;74.30;;;;;;5065953;28;20624;-88
2022/07/02 09:38:26;;;;;;;1.00;0.60;;;22.40;74.40;;;;;;5067781;28;21028;-86
2022/07/02 09:40:55;;;;;;;0.80;0.80;;;22.50;71.40;;;;;;5063141;28;20628;-87
2022/07/02 09:43:27;;;;;;;0.70;0.70;;;22.40;72.10;;;;;;5059915;28;20676;-85
2022/07/02 09:45:54;;;;;;;0.50;0.50;;;22.50;70.80;;;;;;5067887;28;20629;-86
2022/07/02 09:48:21;;;;;;;0.53;0.53;;;22.60;69.10;;;;;;5067478;28;20650;-85
2022/07/02 09:50:47;;;;;;;0.67;0.67;;;22.70;68.80;;;;;;5055264;28;20658;-86
2022/07/02 09:53:14;;;;;;;0.70;0.70;;;22.60;69.80;;;;;;5072029;28;20740;-87
2022/07/02 09:55:49;;;;;;;0.43;0.40;;;22.80;70.40;;;;;;5071668;28;20644;-87
2022/07/02 09:58:24;;;;;;;0.60;0.60;;;23.00;68.60;;;;;;5071553;28;20643;-88
2022/07/02 10:00:52;;;;;;;0.80;0.53;;;23.00;67.40;;;;;;5071503;28;20617;-86
2022/07/02 10:03:23;;;;;;;0.60;0.60;;;22.90;65.20;;;;;;5064409;28;21586;-85
2022/07/02 10:05:52;;;;;;;0.60;0.60;;;23.10;66.60;;;;;;5063655;28;20628;-86
2022/07/02 10:08:19;;;;;;;0.50;0.50;;;23.10;65.10;;;;;;5071091;28;20625;-87
2022/07/02 10:10:50;;;;;;;0.53;0.50;;;23.00;66.10;;;;;;5067891;28;20653;-86
2022/07/02 10:13:18;;;;;;;0.40;0.40;;;23.10;66.70;;;;;;5069825;28;20682;-86
2022/07/02 10:15:53;;;;;;;0.50;0.50;;;23.30;68.70;;;;;;5068893;28;20625;-87
2022/07/02 10:18:25;;;;;;;0.50;0.50;;;23.50;66.70;;;;;;5067851;28;20617;-85
2022/07/02 10:20:55;;;;;;;0.60;0.60;;;23.60;64.20;;;;;;5071583;28;21262;-88
2022/07/02 10:23:23;;;;;;;0.50;0.50;;;23.70;64.20;;;;;;5068703;28;20648;-87
2022/07/02 10:26:06;;;;;;;0.57;0.57;;;23.60;63.70;;;;;;5070535;28;21203;-89
2022/07/02 10:28:37;;;;;;;0.93;0.93;;;;;;;;;;5070102;28;20644;-87
2022/07/02 10:31:07;;;;;;;0.50;0.40;;;23.70;64.40;;;;;;5063635;28;20713;-86
2022/07/02 10:33:40;;;;;;;0.80;0.80;;;23.80;68.20;;;;;;5062702;28;20694;-86
2022/07/02 10:36:10;;;;;;;0.70;0.60;;;24.20;67.90;;;;;;5057835;28;20621;-87
2022/07/02 10:38:38;;;;;;;0.60;0.50;;;24.40;65.70;;;;;;5070062;28;21585;-87
2022/07/02 10:41:10;;;;;;;0.70;0.70;;;24.40;64.40;;;;;;5066250;28;20663;-88
2022/07/02 10:43:39;;;;;;;0.70;0.50;;;24.50;62.30;;;;;;5070402;28;21228;-86
2022/07/02 10:46:07;;;;;;;0.47;0.47;;;24.50;61.70;;;;;;5067743;28;20721;-88
2022/07/02 10:48:35;;;;;;;0.50;0.43;;;24.60;63.20;;;;;;5068617;28;20625;-86
2022/07/02 10:51:04;;;;;;;0.70;0.70;;;;;;;;;;5070146;28;20649;-86
2022/07/02 10:53:38;;;;;;;0.60;0.60;;;24.40;60.20;;;;;;5070187;28;20659;-88
2022/07/02 10:56:10;;;;;;;1.17;0.90;;;24.90;61.20;;;;;;5063914;28;20640;-86
2022/07/02 10:58:40;;;;;;;0.70;0.70;;;25.20;60.70;;;;;;5070384;28;21106;-89
2022/07/02 11:01:12;;;;;;;0.60;0.50;;;25.20;59.30;;;;;;5070381;28;20621;-88
2022/07/02 11:03:39;;;;;;;0.67;0.67;;;25.20;58.30;;;;;;5061390;28;20694;-88
2022/07/02 11:06:15;;;;;;;0.70;0.53;;;25.50;59.30;;;;;;5070531;28;20706;-88
2022/07/02 11:08:50;;;;;;;0.53;0.53;;;25.40;58.50;;;;;;5067721;28;20631;-87
2022/07/02 11:11:29;;;;;;;0.47;0.47;;;25.60;57.60;;;;;;5070934;28;20699;-87
2022/07/02 11:14:00;;;;;;;0.63;0.57;;;25.50;58.10;;;;;;5068684;28;20636;-86
2022/07/02 11:16:29;;;;;;;0.97;0.90;;;25.90;58.50;;;;;;5067194;28;21214;-88
2022/07/02 11:18:58;;;;;;;0.60;0.60;;;25.80;58.80;;;;;;5069582;28;20625;-88
2022/07/02 11:21:26;;;;;;;0.77;0.57;;;26.00;58.80;;;;;;5068886;28;20617;-87
2022/07/02 11:23:53;;;;;;;0.40;0.40;;;26.20;56.50;;;;;;5070154;28;20617;-87
2022/07/02 11:26:24;;;;;;;0.70;0.57;;;26.40;57.80;;;;;;5069612;28;20633;-89
2022/07/02 11:28:52;;;;;;;1.57;0.43;;;;;;;;;;5070112;28;20625;-87
2022/07/02 11:31:23;;;;;;;0.63;0.63;;;26.60;55.80;;;;;;5069450;28;20739;-87
2022/07/02 11:33:52;;;;;;;0.70;0.70;;;26.80;56.80;;;;;;5048253;28;20712;-87
2022/07/02 11:36:19;;;;;;;0.77;0.57;;;;;;;;;;5070142;28;20660;-87
2022/07/02 11:38:49;;;;;;;0.43;0.43;;;27.20;55.30;;;;;;5070105;28;20657;-88
2022/07/02 11:41:21;;;;;;;0.50;0.50;;;27.70;55.30;;;;;;5069349;28;20686;-88
2022/07/02 11:43:51;;;;;;;0.50;0.40;;;27.60;53.00;;;;;;5075606;28;20687;-87
2022/07/02 11:46:20;;;;;;;0.50;0.50;;;28.00;54.20;;;;;;5063599;28;20645;-87
2022/07/02 11:48:47;;;;;;;0.50;0.37;;;28.30;52.40;;;;;;5060958;28;20949;-87
2022/07/02 11:51:16;;;;;;;0.57;0.57;;;28.60;51.80;;;;;;5061437;28;20729;-85
2022/07/02 11:53:43;;;;;;;0.43;0.43;;;29.00;49.80;;;;;;5069636;28;20621;-86
2022/07/02 11:56:13;;;;;;;0.50;0.50;;;29.00;50.70;;;;;;5069247;28;21214;-86
2022/07/02 11:58:44;;;;;;;0.40;0.40;;;29.40;49.50;;;;;;5050036;28;20629;-88
2022/07/02 12:01:20;;;;;;;0.60;0.60;;;29.80;49.40;;;;;;5061817;28;20649;-87
2022/07/02 12:03:48;;;;;;;0.43;0.40;;;;;;;;;;5069059;28;20660;-87
2022/07/02 12:06:16;;;;;;;0.50;0.50;;;;;;;;;;5059159;28;20711;-87
2022/07/02 12:08:43;;;;;;;0.50;0.50;;;;;;;;;;5066710;28;20621;-88
2022/07/02 12:11:17;;;;;;;0.60;0.60;;;32.20;47.50;;;;;;5069602;28;20656;-89
2022/07/02 12:13:45;;;;;;;0.50;0.50;;;33.50;42.60;;;;;;5067952;28;20627;-85
2022/07/02 12:16:14;;;;;;;0.93;0.57;;;33.50;43.10;;;;;;5067694;28;20701;-85
2022/07/02 12:18:44;;;;;;;0.60;0.60;;;34.30;42.70;;;;;;5074306;28;20697;-87
2022/07/02 12:21:13;;;;;;;0.40;0.40;;;34.80;41.20;;;;;;5067094;28;20613;-86
2022/07/02 12:23:45;;;;;;;0.53;0.53;;;34.70;41.40;;;;;;5068028;28;21267;-87
2022/07/02 12:26:23;;;;;;;0.67;0.63;;;35.00;39.30;;;;;;5069160;28;20616;-86
2022/07/02 12:31:47;;;;;;;0.40;0.40;;;35.50;39.90;;;;;;5047867;28;20199;-85
2022/07/02 12:34:18;;;;;;;0.75;0.75;;;35.40;39.10;;;;;;5059193;28;20294;-86
2022/07/02 12:36:52;;;;;;;0.50;0.40;;;35.40;39.50;;;;;;5069051;28;20230;-86
2022/07/02 12:39:20;;;;;;;0.50;0.50;;;35.70;39.50;;;;;;5066657;28;20204;-87
2022/07/02 12:41:52;;;;;;;0.55;0.55;;;35.60;39.10;;;;;;5067617;28;20222;-86
2022/07/02 12:44:25;;;;;;;0.63;0.63;;;35.70;39.70;;;;;;5067769;28;20198;-87
2022/07/02 12:46:53;;;;;;;0.80;0.80;;;35.60;39.40;;;;;;5067484;28;20210;-86
2022/07/02 12:49:25;;;;;;;0.40;0.40;;;36.20;38.00;;;;;;5065027;28;20586;-86
2022/07/02 12:51:59;;;;;;;0.43;0.43;;;36.50;38.00;;;;;;5069541;28;20256;-87
2022/07/02 12:54:37;;;;;;;0.77;0.50;;;36.40;38.60;;;;;;5069923;28;20256;-87
2022/07/02 12:57:24;;;;;;;0.60;0.40;;;36.10;39.20;;;;;;5052566;28;20275;-87
2022/07/02 12:59:53;;;;;;;0.50;0.50;;;36.10;38.70;;;;;;5048622;28;20205;-88
2022/07/02 13:02:24;;;;;;;0.60;0.60;;;36.30;38.60;;;;;;5074544;28;20222;-87